sensor_id;sensor_type;location;lat;lon;timestamp;temperature;humidity
70820;DHT22;58439;51.046;13.692;2023-04-01T00:02:20;9.80;99.90
70820;DHT22;58439;51.046;13.692;2023-04-01T00:04:58;9.90;99.90
70820;DHT22;58439;51.046;13.692;2023-04-01T00:07:25;9.90;99.90
70820;DHT22;58439;51.046;13.692;2023-04-01T00:09:56;9.90;99.90
70820;DHT22;58439;51.046;13.692;2023-04-01T00:12:23;9.90;99.90
70820;DHT22;58439;51.046;13.692;2023-04-01T00:14:51;10.00;99.90
70820;DHT22;58439;51.046;13.692;2023-04-01T00:17:22;10.00;99.90
70820;DHT22;58439;51.046;13.692;2023-04-01T00:19:52;10.00;99.90
70820;DHT22;58439;51.046;13.692;2023-04-01T00:22:27;10.10;99.90
70820;DHT22;58439;51.046;13.692;2023-04-01T00:24:54;10.10;99.90
70820;DHT22;58439;51.046;13.692;2023-04-01T00:27:21;10.20;99.90
70820;DHT22;58439;51.046;13.692;2023-04-01T00:29:48;10.30;99.90
70820;DHT22;58439;51.046;13.692;2023-04-01T00:32:16;10.30;99.90
70820;DHT22;58439;51.046;13.692;2023-04-01T00:34:43;10.30;99.90
70820;DHT22;58439;51.046;13.692;2023-04-01T00:37:11;10.30;99.90
70820;DHT22;58439;51.046;13.692;2023-04-01T00:39:38;10.30;99.90
70820;DHT22;58439;51.046;13.692;2023-04-01T00:42:06;10.30;99.90
70820;DHT22;58439;51.046;13.692;2023-04-01T00:44:36;10.20;99.90
70820;DHT22;58439;51.046;13.692;2023-04-01T00:47:04;10.10;99.90
70820;DHT22;58439;51.046;13.692;2023-04-01T00:49:45;10.00;99.90
70820;DHT22;58439;51.046;13.692;2023-04-01T00:52:15;9.90;99.90
70820;DHT22;58439;51.046;13.692;2023-04-01T00:54:52;9.80;99.90
70820;DHT22;58439;51.046;13.692;2023-04-01T00:57:29;9.70;99.90
70820;DHT22;58439;51.046;13.692;2023-04-01T01:00:05;9.60;99.90
70820;DHT22;58439;51.046;13.692;2023-04-01T01:02:36;9.70;99.90
70820;DHT22;58439;51.046;13.692;2023-04-01T01:05:05;9.60;99.90
70820;DHT22;58439;51.046;13.692;2023-04-01T01:07:45;9.60;99.90
70820;DHT22;58439;51.046;13.692;2023-04-01T01:10:18;9.70;99.90
70820;DHT22;58439;51.046;13.692;2023-04-01T01:13:01;9.70;99.90
70820;DHT22;58439;51.046;13.692;2023-04-01T01:15:58;9.70;99.90
70820;DHT22;58439;51.046;13.692;2023-04-01T01:18:48;9.80;99.90
70820;DHT22;58439;51.046;13.692;2023-04-01T01:21:54;9.90;99.90
70820;DHT22;58439;51.046;13.692;2023-04-01T01:24:43;9.90;99.90
70820;DHT22;58439;51.046;13.692;2023-04-01T01:27:34;10.00;99.90
70820;DHT22;58439;51.046;13.692;2023-04-01T01:30:25;10.00;99.90
70820;DHT22;58439;51.046;13.692;2023-04-01T01:36:04;9.90;99.90
70820;DHT22;58439;51.046;13.692;2023-04-01T01:38:35;9.90;99.90
70820;DHT22;58439;51.046;13.692;2023-04-01T01:41:07;9.80;99.90
70820;DHT22;58439;51.046;13.692;2023-04-01T01:43:41;9.80;99.90
70820;DHT22;58439;51.046;13.692;2023-04-01T01:46:19;9.80;99.90
70820;DHT22;58439;51.046;13.692;2023-04-01T01:48:53;9.80;99.90
70820;DHT22;58439;51.046;13.692;2023-04-01T01:51:24;9.90;99.90
70820;DHT22;58439;51.046;13.692;2023-04-01T01:53:55;9.90;99.90
70820;DHT22;58439;51.046;13.692;2023-04-01T01:56:23;9.90;99.90
70820;DHT22;58439;51.046;13.692;2023-04-01T01:59:00;10.00;99.90
70820;DHT22;58439;51.046;13.692;2023-04-01T02:01:35;10.00;99.90
70820;DHT22;58439;51.046;13.692;2023-04-01T02:04:13;10.00;99.90
70820;DHT22;58439;51.046;13.692;2023-04-01T02:07:02;10.00;99.90
70820;DHT22;58439;51.046;13.692;2023-04-01T02:09:34;10.00;99.90
70820;DHT22;58439;51.046;13.692;2023-04-01T02:12:11;10.00;99.90
70820;DHT22;58439;51.046;13.692;2023-04-01T02:17:34;10.10;99.90
70820;DHT22;58439;51.046;13.692;2023-04-01T02:20:18;10.10;99.90
70820;DHT22;58439;51.046;13.692;2023-04-01T02:22:51;10.10;99.90
70820;DHT22;58439;51.046;13.692;2023-04-01T02:25:30;10.10;99.90
70820;DHT22;58439;51.046;13.692;2023-04-01T02:28:04;10.10;99.90
70820;DHT22;58439;51.046;13.692;2023-04-01T02:30:35;10.10;99.90
70820;DHT22;58439;51.046;13.692;2023-04-01T02:33:06;10.10;99.90
70820;DHT22;58439;51.046;13.692;2023-04-01T02:35:35;10.10;99.90
70820;DHT22;58439;51.046;13.692;2023-04-01T02:38:04;10.10;99.90
70820;DHT22;58439;51.046;13.692;2023-04-01T02:40:49;10.10;99.90
70820;DHT22;58439;51.046;13.692;2023-04-01T02:43:23;10.10;99.90
70820;DHT22;58439;51.046;13.692;2023-04-01T02:45:50;10.10;99.90
70820;DHT22;58439;51.046;13.692;2023-04-01T02:48:17;10.10;99.90
70820;DHT22;58439;51.046;13.692;2023-04-01T02:50:47;10.10;99.90
70820;DHT22;58439;51.046;13.692;2023-04-01T02:53:15;10.00;99.90
70820;DHT22;58439;51.046;13.692;2023-04-01T02:55:43;10.00;99.90
70820;DHT22;58439;51.046;13.692;2023-04-01T02:58:12;10.00;99.90
70820;DHT22;58439;51.046;13.692;2023-04-01T03:00:39;10.00;99.90
70820;DHT22;58439;51.046;13.692;2023-04-01T03:03:06;10.00;99.90
70820;DHT22;58439;51.046;13.692;2023-04-01T03:05:34;10.00;99.90
70820;DHT22;58439;51.046;13.692;2023-04-01T03:08:02;10.00;99.90
70820;DHT22;58439;51.046;13.692;2023-04-01T03:10:29;10.00;99.90
70820;DHT22;58439;51.046;13.692;2023-04-01T03:12:57;10.00;99.90
70820;DHT22;58439;51.046;13.692;2023-04-01T03:15:26;9.90;99.90
70820;DHT22;58439;51.046;13.692;2023-04-01T03:19:20;9.90;99.90
70820;DHT22;58439;51.046;13.692;2023-04-01T03:25:28;9.90;99.90
70820;DHT22;58439;51.046;13.692;2023-04-01T03:28:24;9.90;99.90
70820;DHT22;58439;51.046;13.692;2023-04-01T03:31:16;9.90;99.90
70820;DHT22;58439;51.046;13.692;2023-04-01T03:34:01;9.90;99.90
70820;DHT22;58439;51.046;13.692;2023-04-01T03:36:29;9.80;99.90
70820;DHT22;58439;51.046;13.692;2023-04-01T03:38:56;9.80;99.90
70820;DHT22;58439;51.046;13.692;2023-04-01T03:41:32;9.80;99.90
70820;DHT22;58439;51.046;13.692;2023-04-01T03:44:02;9.80;99.90
70820;DHT22;58439;51.046;13.692;2023-04-01T03:46:30;9.80;99.90
70820;DHT22;58439;51.046;13.692;2023-04-01T03:48:57;9.80;99.90
70820;DHT22;58439;51.046;13.692;2023-04-01T03:51:24;9.80;99.90
70820;DHT22;58439;51.046;13.692;2023-04-01T03:53:53;9.80;99.90
70820;DHT22;58439;51.046;13.692;2023-04-01T03:56:20;9.80;99.90
70820;DHT22;58439;51.046;13.692;2023-04-01T03:58:47;9.80;99.90
70820;DHT22;58439;51.046;13.692;2023-04-01T04:01:19;9.80;99.90
70820;DHT22;58439;51.046;13.692;2023-04-01T04:03:50;9.90;99.90
70820;DHT22;58439;51.046;13.692;2023-04-01T04:06:18;9.90;99.90
70820;DHT22;58439;51.046;13.692;2023-04-01T04:08:47;9.80;99.90
70820;DHT22;58439;51.046;13.692;2023-04-01T04:11:15;9.80;99.90
70820;DHT22;58439;51.046;13.692;2023-04-01T04:13:43;9.80;99.90
70820;DHT22;58439;51.046;13.692;2023-04-01T04:16:11;9.80;99.90
70820;DHT22;58439;51.046;13.692;2023-04-01T04:18:43;9.80;99.90
70820;DHT22;58439;51.046;13.692;2023-04-01T04:21:14;9.90;99.90
70820;DHT22;58439;51.046;13.692;2023-04-01T04:23:43;9.90;99.90
70820;DHT22;58439;51.046;13.692;2023-04-01T04:26:14;9.90;99.90
70820;DHT22;58439;51.046;13.692;2023-04-01T04:28:47;10.00;99.90
70820;DHT22;58439;51.046;13.692;2023-04-01T04:31:21;10.00;99.90
70820;DHT22;58439;51.046;13.692;2023-04-01T04:33:51;10.00;99.90
70820;DHT22;58439;51.046;13.692;2023-04-01T04:36:21;10.00;99.90
70820;DHT22;58439;51.046;13.692;2023-04-01T04:39:03;10.00;99.60
70820;DHT22;58439;51.046;13.692;2023-04-01T04:41:39;10.00;99.50
70820;DHT22;58439;51.046;13.692;2023-04-01T04:44:35;10.00;99.30
70820;DHT22;58439;51.046;13.692;2023-04-01T04:47:06;10.10;99.20
70820;DHT22;58439;51.046;13.692;2023-04-01T04:49:33;10.00;99.20
70820;DHT22;58439;51.046;13.692;2023-04-01T04:52:05;10.00;99.20
70820;DHT22;58439;51.046;13.692;2023-04-01T04:54:33;10.00;99.10
70820;DHT22;58439;51.046;13.692;2023-04-01T04:57:02;10.10;99.10
70820;DHT22;58439;51.046;13.692;2023-04-01T04:59:38;10.10;99.00
70820;DHT22;58439;51.046;13.692;2023-04-01T05:02:15;10.10;99.00
70820;DHT22;58439;51.046;13.692;2023-04-01T05:04:42;10.10;99.10
70820;DHT22;58439;51.046;13.692;2023-04-01T05:07:10;10.10;99.40
70820;DHT22;58439;51.046;13.692;2023-04-01T05:09:38;10.10;99.20
70820;DHT22;58439;51.046;13.692;2023-04-01T05:12:05;10.10;99.20
70820;DHT22;58439;51.046;13.692;2023-04-01T05:14:52;10.10;99.20
70820;DHT22;58439;51.046;13.692;2023-04-01T05:17:23;10.10;99.20
70820;DHT22;58439;51.046;13.692;2023-04-01T05:19:50;10.10;99.30
70820;DHT22;58439;51.046;13.692;2023-04-01T05:22:17;10.10;99.30
70820;DHT22;58439;51.046;13.692;2023-04-01T05:24:44;10.10;99.50
70820;DHT22;58439;51.046;13.692;2023-04-01T05:27:35;10.10;99.50
70820;DHT22;58439;51.046;13.692;2023-04-01T05:30:34;10.10;99.70
70820;DHT22;58439;51.046;13.692;2023-04-01T05:33:51;10.10;99.80
70820;DHT22;58439;51.046;13.692;2023-04-01T05:36:59;10.10;99.80
70820;DHT22;58439;51.046;13.692;2023-04-01T05:39:27;10.10;99.90
70820;DHT22;58439;51.046;13.692;2023-04-01T05:41:54;10.10;99.90
70820;DHT22;58439;51.046;13.692;2023-04-01T05:44:21;10.10;99.90
70820;DHT22;58439;51.046;13.692;2023-04-01T05:47:11;10.10;99.90
70820;DHT22;58439;51.046;13.692;2023-04-01T05:49:38;10.20;99.90
70820;DHT22;58439;51.046;13.692;2023-04-01T05:52:05;10.10;99.90
70820;DHT22;58439;51.046;13.692;2023-04-01T05:54:34;10.10;99.90
70820;DHT22;58439;51.046;13.692;2023-04-01T05:57:02;10.20;99.90
70820;DHT22;58439;51.046;13.692;2023-04-01T05:59:33;10.10;99.90
70820;DHT22;58439;51.046;13.692;2023-04-01T06:02:02;10.00;99.90
70820;DHT22;58439;51.046;13.692;2023-04-01T06:04:37;9.90;99.90
70820;DHT22;58439;51.046;13.692;2023-04-01T06:07:11;9.80;99.90
70820;DHT22;58439;51.046;13.692;2023-04-01T06:09:40;9.80;99.90
70820;DHT22;58439;51.046;13.692;2023-04-01T06:18:09;9.90;99.90
70820;DHT22;58439;51.046;13.692;2023-04-01T06:24:36;10.20;99.90
70820;DHT22;58439;51.046;13.692;2023-04-01T06:30:32;10.60;99.10
70820;DHT22;58439;51.046;13.692;2023-04-01T06:36:25;10.90;97.90
70820;DHT22;58439;51.046;13.692;2023-04-01T06:39:15;11.00;97.30
70820;DHT22;58439;51.046;13.692;2023-04-01T06:45:13;11.20;96.10
70820;DHT22;58439;51.046;13.692;2023-04-01T06:48:40;11.20;95.60
70820;DHT22;58439;51.046;13.692;2023-04-01T06:52:02;11.30;95.30
70820;DHT22;58439;51.046;13.692;2023-04-01T06:55:17;11.40;95.20
70820;DHT22;58439;51.046;13.692;2023-04-01T06:58:36;11.50;94.30
70820;DHT22;58439;51.046;13.692;2023-04-01T07:04:48;11.60;93.60
70820;DHT22;58439;51.046;13.692;2023-04-01T07:07:42;11.70;93.20
70820;DHT22;58439;51.046;13.692;2023-04-01T07:10:27;11.70;92.90
70820;DHT22;58439;51.046;13.692;2023-04-01T07:13:29;11.70;93.10
70820;DHT22;58439;51.046;13.692;2023-04-01T07:16:31;11.80;92.90
70820;DHT22;58439;51.046;13.692;2023-04-01T07:25:14;11.80;92.00
70820;DHT22;58439;51.046;13.692;2023-04-01T07:27:51;11.90;92.10
70820;DHT22;58439;51.046;13.692;2023-04-01T07:30:22;11.90;91.70
70820;DHT22;58439;51.046;13.692;2023-04-01T07:33:21;11.90;91.60
70820;DHT22;58439;51.046;13.692;2023-04-01T07:36:12;12.00;91.50
70820;DHT22;58439;51.046;13.692;2023-04-01T07:42:23;12.10;90.90
70820;DHT22;58439;51.046;13.692;2023-04-01T07:49:01;12.10;91.30
70820;DHT22;58439;51.046;13.692;2023-04-01T07:52:01;12.20;90.10
70820;DHT22;58439;51.046;13.692;2023-04-01T07:54:55;12.10;90.30
70820;DHT22;58439;51.046;13.692;2023-04-01T07:57:36;12.00;90.60
70820;DHT22;58439;51.046;13.692;2023-04-01T08:00:33;12.10;90.80
70820;DHT22;58439;51.046;13.692;2023-04-01T08:03:57;12.10;91.00
70820;DHT22;58439;51.046;13.692;2023-04-01T08:07:10;12.30;90.70
70820;DHT22;58439;51.046;13.692;2023-04-01T08:10:17;12.30;90.30
70820;DHT22;58439;51.046;13.692;2023-04-01T08:22:23;12.50;90.60
70820;DHT22;58439;51.046;13.692;2023-04-01T08:25:26;12.70;88.70
70820;DHT22;58439;51.046;13.692;2023-04-01T08:28:27;12.80;86.70
70820;DHT22;58439;51.046;13.692;2023-04-01T08:38:34;12.90;84.70
70820;DHT22;58439;51.046;13.692;2023-04-01T08:46:04;13.20;82.20
70820;DHT22;58439;51.046;13.692;2023-04-01T09:20:02;13.10;80.00
70820;DHT22;58439;51.046;13.692;2023-04-01T09:23:14;13.30;78.00
70820;DHT22;58439;51.046;13.692;2023-04-01T09:38:23;14.00;73.30
70820;DHT22;58439;51.046;13.692;2023-04-01T09:41:26;14.10;73.70
70820;DHT22;58439;51.046;13.692;2023-04-01T09:44:37;14.20;70.40
70820;DHT22;58439;51.046;13.692;2023-04-01T10:16:14;13.70;70.70
70820;DHT22;58439;51.046;13.692;2023-04-01T10:25:38;13.40;74.20
70820;DHT22;58439;51.046;13.692;2023-04-01T11:45:22;14.20;78.50
70820;DHT22;58439;51.046;13.692;2023-04-01T11:52:31;13.90;90.20
70820;DHT22;58439;51.046;13.692;2023-04-01T12:07:01;15.70;68.80
70820;DHT22;58439;51.046;13.692;2023-04-01T12:10:17;15.70;66.60
70820;DHT22;58439;51.046;13.692;2023-04-01T12:34:40;14.60;75.20
70820;DHT22;58439;51.046;13.692;2023-04-01T12:38:59;14.60;74.10
70820;DHT22;58439;51.046;13.692;2023-04-01T12:46:33;15.30;72.30
70820;DHT22;58439;51.046;13.692;2023-04-01T13:04:17;17.30;51.50
70820;DHT22;58439;51.046;13.692;2023-04-01T13:16:10;18.40;44.10
70820;DHT22;58439;51.046;13.692;2023-04-01T13:19:13;18.90;42.00
70820;DHT22;58439;51.046;13.692;2023-04-01T13:34:00;16.40;45.20
70820;DHT22;58439;51.046;13.692;2023-04-01T13:37:38;15.90;49.10
70820;DHT22;58439;51.046;13.692;2023-04-01T13:45:12;17.00;48.80
70820;DHT22;58439;51.046;13.692;2023-04-01T13:52:39;17.80;43.20
70820;DHT22;58439;51.046;13.692;2023-04-01T14:03:03;18.10;42.30
70820;DHT22;58439;51.046;13.692;2023-04-01T14:06:19;18.70;40.60
70820;DHT22;58439;51.046;13.692;2023-04-01T14:09:59;20.00;39.90
70820;DHT22;58439;51.046;13.692;2023-04-01T14:13:18;21.40;37.10
70820;DHT22;58439;51.046;13.692;2023-04-01T14:34:47;19.00;38.80
70820;DHT22;58439;51.046;13.692;2023-04-01T14:38:17;18.20;40.60
70820;DHT22;58439;51.046;13.692;2023-04-01T14:51:16;17.60;44.40
70820;DHT22;58439;51.046;13.692;2023-04-01T14:54:00;18.20;40.60
70820;DHT22;58439;51.046;13.692;2023-04-01T14:56:47;18.50;39.50
70820;DHT22;58439;51.046;13.692;2023-04-01T14:59:48;18.40;40.20
70820;DHT22;58439;51.046;13.692;2023-04-01T15:02:33;18.20;40.60
70820;DHT22;58439;51.046;13.692;2023-04-01T15:05:47;17.90;40.60
70820;DHT22;58439;51.046;13.692;2023-04-01T15:08:57;17.20;41.50
70820;DHT22;58439;51.046;13.692;2023-04-01T15:11:48;16.60;43.30
70820;DHT22;58439;51.046;13.692;2023-04-01T15:17:22;15.80;46.10
70820;DHT22;58439;51.046;13.692;2023-04-01T15:25:31;15.50;47.90
70820;DHT22;58439;51.046;13.692;2023-04-01T15:31:50;15.50;50.00
70820;DHT22;58439;51.046;13.692;2023-04-01T15:35:40;15.40;50.20
70820;DHT22;58439;51.046;13.692;2023-04-01T15:38:35;15.00;52.70
70820;DHT22;58439;51.046;13.692;2023-04-01T15:41:24;14.80;53.70
70820;DHT22;58439;51.046;13.692;2023-04-01T15:44:37;14.70;55.40
70820;DHT22;58439;51.046;13.692;2023-04-01T15:48:01;14.50;56.70
70820;DHT22;58439;51.046;13.692;2023-04-01T15:51:16;14.50;58.60
70820;DHT22;58439;51.046;13.692;2023-04-01T15:57:28;14.50;58.00
70820;DHT22;58439;51.046;13.692;2023-04-01T16:07:30;14.50;56.30
70820;DHT22;58439;51.046;13.692;2023-04-01T16:10:31;14.40;57.70
70820;DHT22;58439;51.046;13.692;2023-04-01T16:16:56;14.40;60.20
70820;DHT22;58439;51.046;13.692;2023-04-01T16:22:49;14.20;62.00
70820;DHT22;58439;51.046;13.692;2023-04-01T16:25:29;14.10;63.40
70820;DHT22;58439;51.046;13.692;2023-04-01T16:28:12;14.00;65.00
70820;DHT22;58439;51.046;13.692;2023-04-01T16:30:59;13.90;65.90
70820;DHT22;58439;51.046;13.692;2023-04-01T16:33:49;13.80;66.90
70820;DHT22;58439;51.046;13.692;2023-04-01T16:36:39;13.80;68.10
70820;DHT22;58439;51.046;13.692;2023-04-01T16:39:29;13.70;69.30
70820;DHT22;58439;51.046;13.692;2023-04-01T16:42:47;13.60;71.00
70820;DHT22;58439;51.046;13.692;2023-04-01T16:45:39;13.50;73.20
70820;DHT22;58439;51.046;13.692;2023-04-01T16:48:15;13.50;74.60
70820;DHT22;58439;51.046;13.692;2023-04-01T16:51:04;13.40;76.00
70820;DHT22;58439;51.046;13.692;2023-04-01T16:53:48;13.40;77.30
70820;DHT22;58439;51.046;13.692;2023-04-01T16:56:27;13.30;79.60
70820;DHT22;58439;51.046;13.692;2023-04-01T16:59:19;13.20;80.70
70820;DHT22;58439;51.046;13.692;2023-04-01T17:02:13;13.10;84.30
70820;DHT22;58439;51.046;13.692;2023-04-01T17:04:47;13.00;85.40
70820;DHT22;58439;51.046;13.692;2023-04-01T17:07:49;12.90;87.20
70820;DHT22;58439;51.046;13.692;2023-04-01T17:13:44;12.70;91.00
70820;DHT22;58439;51.046;13.692;2023-04-01T17:16:56;12.50;91.50
70820;DHT22;58439;51.046;13.692;2023-04-01T17:26:28;12.20;93.50
70820;DHT22;58439;51.046;13.692;2023-04-01T17:31:48;12.10;94.30
70820;DHT22;58439;51.046;13.692;2023-04-01T17:34:42;12.20;95.00
70820;DHT22;58439;51.046;13.692;2023-04-01T17:37:56;12.20;95.20
70820;DHT22;58439;51.046;13.692;2023-04-01T17:47:18;12.10;96.10
70820;DHT22;58439;51.046;13.692;2023-04-01T17:58:59;12.00;97.60
70820;DHT22;58439;51.046;13.692;2023-04-01T18:04:42;12.00;98.20
70820;DHT22;58439;51.046;13.692;2023-04-01T18:16:25;12.00;98.60
70820;DHT22;58439;51.046;13.692;2023-04-01T18:39:03;12.00;99.90
70820;DHT22;58439;51.046;13.692;2023-04-01T18:55:22;11.60;99.90
70820;DHT22;58439;51.046;13.692;2023-04-01T21:13:30;11.00;99.90
70820;DHT22;58439;51.046;13.692;2023-04-01T22:17:28;10.20;99.90
70820;DHT22;58439;51.046;13.692;2023-04-01T22:23:27;10.00;99.90
70820;DHT22;58439;51.046;13.692;2023-04-01T22:26:11;10.00;99.90
70820;DHT22;58439;51.046;13.692;2023-04-01T22:29:26;10.00;99.90
70820;DHT22;58439;51.046;13.692;2023-04-01T22:32:02;9.90;99.90
70820;DHT22;58439;51.046;13.692;2023-04-01T22:41:33;9.80;99.90
70820;DHT22;58439;51.046;13.692;2023-04-01T22:48:49;9.80;99.90
70820;DHT22;58439;51.046;13.692;2023-04-01T22:59:54;9.60;99.90
70820;DHT22;58439;51.046;13.692;2023-04-01T23:02:35;9.60;99.90
70820;DHT22;58439;51.046;13.692;2023-04-01T23:05:12;9.50;99.90
70820;DHT22;58439;51.046;13.692;2023-04-01T23:11:53;9.50;99.90
70820;DHT22;58439;51.046;13.692;2023-04-01T23:14:54;9.40;99.90
70820;DHT22;58439;51.046;13.692;2023-04-01T23:19:23;9.30;99.90
70820;DHT22;58439;51.046;13.692;2023-04-01T23:22:49;9.30;99.90
70820;DHT22;58439;51.046;13.692;2023-04-01T23:25:43;9.20;99.90
70820;DHT22;58439;51.046;13.692;2023-04-01T23:28:50;9.20;99.90
70820;DHT22;58439;51.046;13.692;2023-04-01T23:32:04;9.10;99.90
70820;DHT22;58439;51.046;13.692;2023-04-01T23:35:22;9.10;99.90
70820;DHT22;58439;51.046;13.692;2023-04-01T23:37:49;9.00;99.90
70820;DHT22;58439;51.046;13.692;2023-04-01T23:40:19;9.00;99.90
70820;DHT22;58439;51.046;13.692;2023-04-01T23:42:47;9.00;99.90
70820;DHT22;58439;51.046;13.692;2023-04-01T23:45:17;8.90;99.90
70820;DHT22;58439;51.046;13.692;2023-04-01T23:47:50;8.90;99.90
70820;DHT22;58439;51.046;13.692;2023-04-01T23:50:25;8.90;99.90
70820;DHT22;58439;51.046;13.692;2023-04-01T23:53:08;8.80;99.90
70820;DHT22;58439;51.046;13.692;2023-04-01T23:55:43;8.80;99.90
70820;DHT22;58439;51.046;13.692;2023-04-01T23:58:23;8.80;99.90
